Bogalusa, George R Carr Memorial Air Field (KBXA)

NameGeorge R Carr Memorial Air Field
CityBogalusa
CountryUnited States
ICAOKBXA
IATABXA
Altitude36 m
CoordinatesGoogle Map
Live Air TrafficLiveATC.net
METARKBXA 210855Z AUTO 00000KT 10SM OVC005 15/13 A3000 RMK AO2 LTG DSNT NW THRU NE P0001 60004 T01460130
2019-02-21 08:55:00 Wind: North (0°) 0 m/s - Visibility: 16093.4 m - Temperature: 15 °C - Dew point: 13 °C - Humidity: 87.9% - Pressure: 1015.92 hPa

Sorry, no flights used the airport in this database.